Weather at Heliport Castellana grotte

Public forecast

Using degrees Celsius for public forecast. Weather courtesy of forecast.io.

Closest aviation weather report (METAR) to Heliport Castellana grotte

Closest report is Gioia Del Colle Air Base, 12.0 nm (22.2 km) SW.

2024/05/22 19:55 (retrieved 41 minutes ago)

LIBV 221955Z 36002KT 9999 FEW050 17/13 Q1016 RMK BKN SCT100 VIS MIN 9999 WIND THR32 01003KT WIND THR14 01002KT BLU

Closest aviation forecast (TAF) to Heliport Castellana grotte

Closest forecast is Bari Karol Wojtyła Airport, 23.3 nm (43.2 km) NW.

2024/05/22 18:00 (retrieved 3 hours ago)

TAF LIBD 221700Z 2218/2318 VRB05KT CAVOK BECMG 2302/2304 26010KT BECMG 2309/2311 01012KT